sensor_id;sensor_type;location;lat;lon;timestamp;P1;durP1;ratioP1;P2;durP2;ratioP2
21601;SDS011;10963;50.934;4.668;2022-07-22T00:01:51;8.80;;;4.27;;
21601;SDS011;10963;50.934;4.668;2022-07-22T00:04:19;12.90;;;4.73;;
21601;SDS011;10963;50.934;4.668;2022-07-22T00:06:45;9.53;;;4.03;;
21601;SDS011;10963;50.934;4.668;2022-07-22T00:09:11;7.60;;;3.90;;
21601;SDS011;10963;50.934;4.668;2022-07-22T00:11:39;9.13;;;3.73;;
21601;SDS011;10963;50.934;4.668;2022-07-22T00:14:08;9.40;;;4.20;;
21601;SDS011;10963;50.934;4.668;2022-07-22T00:16:34;10.20;;;3.37;;
21601;SDS011;10963;50.934;4.668;2022-07-22T00:18:59;11.23;;;3.77;;
21601;SDS011;10963;50.934;4.668;2022-07-22T00:21:25;11.67;;;5.00;;
21601;SDS011;10963;50.934;4.668;2022-07-22T00:23:51;11.83;;;4.53;;
21601;SDS011;10963;50.934;4.668;2022-07-22T00:26:16;10.87;;;4.13;;
21601;SDS011;10963;50.934;4.668;2022-07-22T00:28:44;7.73;;;4.37;;
21601;SDS011;10963;50.934;4.668;2022-07-22T00:31:12;7.10;;;3.73;;
21601;SDS011;10963;50.934;4.668;2022-07-22T00:33:38;10.57;;;3.97;;
21601;SDS011;10963;50.934;4.668;2022-07-22T00:36:03;10.97;;;4.40;;
21601;SDS011;10963;50.934;4.668;2022-07-22T00:38:32;11.97;;;3.83;;
21601;SDS011;10963;50.934;4.668;2022-07-22T00:41:02;6.33;;;4.10;;
21601;SDS011;10963;50.934;4.668;2022-07-22T00:43:28;14.43;;;4.37;;
21601;SDS011;10963;50.934;4.668;2022-07-22T00:46:12;8.83;;;3.67;;
21601;SDS011;10963;50.934;4.668;2022-07-22T00:48:38;7.40;;;3.40;;
21601;SDS011;10963;50.934;4.668;2022-07-22T00:51:04;10.47;;;3.87;;
21601;SDS011;10963;50.934;4.668;2022-07-22T00:53:30;12.60;;;4.70;;
21601;SDS011;10963;50.934;4.668;2022-07-22T00:55:55;12.27;;;4.37;;
21601;SDS011;10963;50.934;4.668;2022-07-22T00:58:21;9.97;;;4.30;;
21601;SDS011;10963;50.934;4.668;2022-07-22T01:00:47;10.77;;;4.03;;
21601;SDS011;10963;50.934;4.668;2022-07-22T01:03:12;8.83;;;4.03;;
21601;SDS011;10963;50.934;4.668;2022-07-22T01:05:41;7.53;;;3.90;;
21601;SDS011;10963;50.934;4.668;2022-07-22T01:08:08;6.87;;;4.00;;
21601;SDS011;10963;50.934;4.668;2022-07-22T01:10:37;7.37;;;3.80;;
21601;SDS011;10963;50.934;4.668;2022-07-22T01:13:03;8.67;;;4.73;;
21601;SDS011;10963;50.934;4.668;2022-07-22T01:15:29;7.97;;;3.90;;
21601;SDS011;10963;50.934;4.668;2022-07-22T01:17:55;10.50;;;4.10;;
21601;SDS011;10963;50.934;4.668;2022-07-22T01:20:21;7.17;;;3.67;;
21601;SDS011;10963;50.934;4.668;2022-07-22T01:22:46;8.47;;;3.73;;
21601;SDS011;10963;50.934;4.668;2022-07-22T01:25:12;5.93;;;4.00;;
21601;SDS011;10963;50.934;4.668;2022-07-22T01:27:40;9.57;;;4.37;;
21601;SDS011;10963;50.934;4.668;2022-07-22T01:30:06;10.47;;;4.47;;
21601;SDS011;10963;50.934;4.668;2022-07-22T01:32:35;9.47;;;4.57;;
21601;SDS011;10963;50.934;4.668;2022-07-22T01:35:02;10.70;;;4.20;;
21601;SDS011;10963;50.934;4.668;2022-07-22T01:37:28;8.13;;;4.23;;
21601;SDS011;10963;50.934;4.668;2022-07-22T01:39:59;6.67;;;4.00;;
21601;SDS011;10963;50.934;4.668;2022-07-22T01:42:27;15.77;;;4.93;;
21601;SDS011;10963;50.934;4.668;2022-07-22T01:44:53;11.70;;;5.03;;
21601;SDS011;10963;50.934;4.668;2022-07-22T01:47:26;14.13;;;4.80;;
21601;SDS011;10963;50.934;4.668;2022-07-22T01:49:52;8.77;;;4.00;;
21601;SDS011;10963;50.934;4.668;2022-07-22T01:52:19;6.03;;;4.07;;
21601;SDS011;10963;50.934;4.668;2022-07-22T01:54:45;7.67;;;3.90;;
21601;SDS011;10963;50.934;4.668;2022-07-22T01:57:14;8.63;;;4.43;;
21601;SDS011;10963;50.934;4.668;2022-07-22T01:59:39;8.03;;;3.67;;
21601;SDS011;10963;50.934;4.668;2022-07-22T02:02:05;11.70;;;4.47;;
21601;SDS011;10963;50.934;4.668;2022-07-22T02:04:31;7.00;;;3.43;;
21601;SDS011;10963;50.934;4.668;2022-07-22T02:06:59;7.63;;;4.37;;
21601;SDS011;10963;50.934;4.668;2022-07-22T02:09:24;13.57;;;4.37;;
21601;SDS011;10963;50.934;4.668;2022-07-22T02:11:50;8.90;;;4.50;;
21601;SDS011;10963;50.934;4.668;2022-07-22T02:14:16;14.90;;;4.77;;
21601;SDS011;10963;50.934;4.668;2022-07-22T02:16:41;12.07;;;4.80;;
21601;SDS011;10963;50.934;4.668;2022-07-22T02:19:07;6.83;;;3.80;;
21601;SDS011;10963;50.934;4.668;2022-07-22T02:21:33;8.00;;;3.73;;
21601;SDS011;10963;50.934;4.668;2022-07-22T02:23:58;8.60;;;3.80;;
21601;SDS011;10963;50.934;4.668;2022-07-22T02:26:27;4.90;;;3.70;;
21601;SDS011;10963;50.934;4.668;2022-07-22T02:28:55;7.67;;;3.47;;
21601;SDS011;10963;50.934;4.668;2022-07-22T02:31:21;6.30;;;3.70;;
21601;SDS011;10963;50.934;4.668;2022-07-22T02:33:47;9.57;;;3.80;;
21601;SDS011;10963;50.934;4.668;2022-07-22T02:36:14;7.60;;;3.63;;
21601;SDS011;10963;50.934;4.668;2022-07-22T02:38:44;8.90;;;4.00;;
21601;SDS011;10963;50.934;4.668;2022-07-22T02:41:09;4.63;;;3.43;;
21601;SDS011;10963;50.934;4.668;2022-07-22T02:43:35;5.93;;;3.60;;
21601;SDS011;10963;50.934;4.668;2022-07-22T02:46:01;7.30;;;3.50;;
21601;SDS011;10963;50.934;4.668;2022-07-22T02:48:27;7.50;;;4.30;;
21601;SDS011;10963;50.934;4.668;2022-07-22T02:50:55;7.70;;;3.70;;
21601;SDS011;10963;50.934;4.668;2022-07-22T02:53:20;8.60;;;3.87;;
21601;SDS011;10963;50.934;4.668;2022-07-22T02:55:46;9.53;;;4.30;;
21601;SDS011;10963;50.934;4.668;2022-07-22T02:58:14;6.87;;;3.80;;
21601;SDS011;10963;50.934;4.668;2022-07-22T03:00:43;6.23;;;4.23;;
21601;SDS011;10963;50.934;4.668;2022-07-22T03:03:08;7.70;;;3.50;;
21601;SDS011;10963;50.934;4.668;2022-07-22T03:05:34;8.47;;;3.37;;
21601;SDS011;10963;50.934;4.668;2022-07-22T03:08:03;11.43;;;3.50;;
21601;SDS011;10963;50.934;4.668;2022-07-22T03:10:29;7.37;;;3.63;;
21601;SDS011;10963;50.934;4.668;2022-07-22T03:12:54;5.77;;;3.83;;
21601;SDS011;10963;50.934;4.668;2022-07-22T03:15:21;12.53;;;4.17;;
21601;SDS011;10963;50.934;4.668;2022-07-22T03:17:46;6.33;;;3.73;;
21601;SDS011;10963;50.934;4.668;2022-07-22T03:20:12;6.43;;;3.57;;
21601;SDS011;10963;50.934;4.668;2022-07-22T03:22:38;6.20;;;3.70;;
21601;SDS011;10963;50.934;4.668;2022-07-22T03:25:04;9.97;;;3.20;;
21601;SDS011;10963;50.934;4.668;2022-07-22T03:27:32;9.40;;;3.43;;
21601;SDS011;10963;50.934;4.668;2022-07-22T03:29:58;7.67;;;4.20;;
21601;SDS011;10963;50.934;4.668;2022-07-22T03:32:23;11.63;;;4.07;;
21601;SDS011;10963;50.934;4.668;2022-07-22T03:34:49;11.10;;;3.60;;
21601;SDS011;10963;50.934;4.668;2022-07-22T03:37:17;8.50;;;4.47;;
21601;SDS011;10963;50.934;4.668;2022-07-22T03:39:43;8.00;;;4.40;;
21601;SDS011;10963;50.934;4.668;2022-07-22T03:42:09;12.63;;;4.40;;
21601;SDS011;10963;50.934;4.668;2022-07-22T03:44:39;7.97;;;3.87;;
21601;SDS011;10963;50.934;4.668;2022-07-22T03:47:07;7.37;;;3.57;;
21601;SDS011;10963;50.934;4.668;2022-07-22T03:49:35;8.73;;;3.83;;
21601;SDS011;10963;50.934;4.668;2022-07-22T03:52:01;5.87;;;3.63;;
21601;SDS011;10963;50.934;4.668;2022-07-22T03:54:27;8.87;;;3.40;;
21601;SDS011;10963;50.934;4.668;2022-07-22T03:56:52;7.73;;;4.20;;
21601;SDS011;10963;50.934;4.668;2022-07-22T03:59:18;9.23;;;3.57;;
21601;SDS011;10963;50.934;4.668;2022-07-22T04:01:44;7.53;;;3.13;;
21601;SDS011;10963;50.934;4.668;2022-07-22T04:04:12;8.13;;;3.70;;
21601;SDS011;10963;50.934;4.668;2022-07-22T04:06:38;9.60;;;4.07;;
21601;SDS011;10963;50.934;4.668;2022-07-22T04:09:03;8.57;;;3.60;;
21601;SDS011;10963;50.934;4.668;2022-07-22T04:11:29;6.10;;;3.17;;
21601;SDS011;10963;50.934;4.668;2022-07-22T04:13:55;8.77;;;3.57;;
21601;SDS011;10963;50.934;4.668;2022-07-22T04:16:23;8.97;;;3.40;;
21601;SDS011;10963;50.934;4.668;2022-07-22T04:18:49;11.00;;;3.93;;
21601;SDS011;10963;50.934;4.668;2022-07-22T04:21:17;9.40;;;4.10;;
21601;SDS011;10963;50.934;4.668;2022-07-22T04:23:45;7.70;;;3.77;;
21601;SDS011;10963;50.934;4.668;2022-07-22T04:26:11;7.13;;;3.80;;
21601;SDS011;10963;50.934;4.668;2022-07-22T04:28:36;16.13;;;4.40;;
21601;SDS011;10963;50.934;4.668;2022-07-22T04:31:07;8.67;;;3.60;;
21601;SDS011;10963;50.934;4.668;2022-07-22T04:33:33;7.30;;;3.77;;
21601;SDS011;10963;50.934;4.668;2022-07-22T04:36:01;6.90;;;3.83;;
21601;SDS011;10963;50.934;4.668;2022-07-22T04:38:27;6.43;;;3.90;;
21601;SDS011;10963;50.934;4.668;2022-07-22T04:40:54;9.60;;;3.70;;
21601;SDS011;10963;50.934;4.668;2022-07-22T04:43:24;8.30;;;3.87;;
21601;SDS011;10963;50.934;4.668;2022-07-22T04:45:50;8.37;;;3.77;;
21601;SDS011;10963;50.934;4.668;2022-07-22T04:48:19;6.90;;;3.73;;
21601;SDS011;10963;50.934;4.668;2022-07-22T04:50:44;7.17;;;2.80;;
21601;SDS011;10963;50.934;4.668;2022-07-22T04:53:10;5.80;;;3.10;;
21601;SDS011;10963;50.934;4.668;2022-07-22T04:55:38;5.60;;;3.40;;
21601;SDS011;10963;50.934;4.668;2022-07-22T04:58:04;8.03;;;3.50;;
21601;SDS011;10963;50.934;4.668;2022-07-22T05:00:33;7.43;;;3.53;;
21601;SDS011;10963;50.934;4.668;2022-07-22T05:03:02;9.07;;;3.67;;
21601;SDS011;10963;50.934;4.668;2022-07-22T05:05:27;5.30;;;4.00;;
21601;SDS011;10963;50.934;4.668;2022-07-22T05:07:54;7.90;;;4.80;;
21601;SDS011;10963;50.934;4.668;2022-07-22T05:10:19;7.80;;;4.53;;
21601;SDS011;10963;50.934;4.668;2022-07-22T05:12:45;8.27;;;4.60;;
21601;SDS011;10963;50.934;4.668;2022-07-22T05:15:14;10.03;;;4.57;;
21601;SDS011;10963;50.934;4.668;2022-07-22T05:17:40;7.17;;;4.77;;
21601;SDS011;10963;50.934;4.668;2022-07-22T05:20:06;6.87;;;4.33;;
21601;SDS011;10963;50.934;4.668;2022-07-22T05:22:32;8.47;;;4.90;;
21601;SDS011;10963;50.934;4.668;2022-07-22T05:24:58;8.57;;;5.10;;
21601;SDS011;10963;50.934;4.668;2022-07-22T05:27:24;10.90;;;4.57;;
21601;SDS011;10963;50.934;4.668;2022-07-22T05:29:53;13.07;;;5.13;;
21601;SDS011;10963;50.934;4.668;2022-07-22T05:32:18;10.97;;;5.67;;
21601;SDS011;10963;50.934;4.668;2022-07-22T05:34:44;10.20;;;6.00;;
21601;SDS011;10963;50.934;4.668;2022-07-22T05:37:13;15.20;;;5.83;;
21601;SDS011;10963;50.934;4.668;2022-07-22T05:39:43;15.40;;;6.47;;
21601;SDS011;10963;50.934;4.668;2022-07-22T05:42:11;16.67;;;7.73;;
21601;SDS011;10963;50.934;4.668;2022-07-22T05:44:39;19.90;;;7.77;;
21601;SDS011;10963;50.934;4.668;2022-07-22T05:47:08;12.00;;;7.07;;
21601;SDS011;10963;50.934;4.668;2022-07-22T05:49:33;19.60;;;8.47;;
21601;SDS011;10963;50.934;4.668;2022-07-22T05:52:02;17.20;;;8.90;;
21601;SDS011;10963;50.934;4.668;2022-07-22T05:54:30;19.10;;;8.57;;
21601;SDS011;10963;50.934;4.668;2022-07-22T05:56:57;18.40;;;8.60;;
21601;SDS011;10963;50.934;4.668;2022-07-22T05:59:24;15.40;;;7.97;;
21601;SDS011;10963;50.934;4.668;2022-07-22T06:01:50;16.30;;;8.13;;
21601;SDS011;10963;50.934;4.668;2022-07-22T06:04:19;12.43;;;7.13;;
21601;SDS011;10963;50.934;4.668;2022-07-22T06:06:45;13.40;;;7.47;;
21601;SDS011;10963;50.934;4.668;2022-07-22T06:09:12;13.17;;;6.77;;
21601;SDS011;10963;50.934;4.668;2022-07-22T06:11:40;13.97;;;6.43;;
21601;SDS011;10963;50.934;4.668;2022-07-22T06:14:06;10.47;;;6.20;;
21601;SDS011;10963;50.934;4.668;2022-07-22T06:16:32;13.33;;;6.83;;
21601;SDS011;10963;50.934;4.668;2022-07-22T06:19:02;11.73;;;6.60;;
21601;SDS011;10963;50.934;4.668;2022-07-22T06:21:27;13.10;;;6.03;;
21601;SDS011;10963;50.934;4.668;2022-07-22T06:23:55;16.10;;;6.60;;
21601;SDS011;10963;50.934;4.668;2022-07-22T06:26:21;12.63;;;6.33;;
21601;SDS011;10963;50.934;4.668;2022-07-22T06:28:47;13.97;;;5.80;;
21601;SDS011;10963;50.934;4.668;2022-07-22T06:31:16;14.53;;;5.90;;
21601;SDS011;10963;50.934;4.668;2022-07-22T06:33:44;11.83;;;6.13;;
21601;SDS011;10963;50.934;4.668;2022-07-22T06:36:09;12.27;;;5.82;;
21601;SDS011;10963;50.934;4.668;2022-07-22T06:38:36;8.40;;;5.13;;
21601;SDS011;10963;50.934;4.668;2022-07-22T06:41:02;8.88;;;5.57;;
21601;SDS011;10963;50.934;4.668;2022-07-22T06:43:27;8.67;;;4.60;;
21601;SDS011;10963;50.934;4.668;2022-07-22T06:45:54;11.37;;;4.83;;
21601;SDS011;10963;50.934;4.668;2022-07-22T06:48:19;12.00;;;5.00;;
21601;SDS011;10963;50.934;4.668;2022-07-22T06:50:47;12.32;;;5.45;;
21601;SDS011;10963;50.934;4.668;2022-07-22T06:53:16;10.45;;;5.22;;
21601;SDS011;10963;50.934;4.668;2022-07-22T06:55:41;11.18;;;6.10;;
21601;SDS011;10963;50.934;4.668;2022-07-22T06:58:07;10.68;;;4.80;;
21601;SDS011;10963;50.934;4.668;2022-07-22T07:00:33;8.23;;;4.20;;
21601;SDS011;10963;50.934;4.668;2022-07-22T07:02:59;8.43;;;4.65;;
21601;SDS011;10963;50.934;4.668;2022-07-22T07:05:27;10.82;;;4.63;;
21601;SDS011;10963;50.934;4.668;2022-07-22T07:07:55;8.13;;;3.90;;
21601;SDS011;10963;50.934;4.668;2022-07-22T07:10:24;9.23;;;4.50;;
21601;SDS011;10963;50.934;4.668;2022-07-22T07:12:51;7.90;;;4.00;;
21601;SDS011;10963;50.934;4.668;2022-07-22T07:15:23;10.65;;;4.28;;
21601;SDS011;10963;50.934;4.668;2022-07-22T07:17:50;9.77;;;4.20;;
21601;SDS011;10963;50.934;4.668;2022-07-22T07:20:18;6.72;;;4.32;;
21601;SDS011;10963;50.934;4.668;2022-07-22T07:22:44;9.15;;;4.30;;
21601;SDS011;10963;50.934;4.668;2022-07-22T07:25:11;9.43;;;4.38;;
21601;SDS011;10963;50.934;4.668;2022-07-22T07:27:37;7.07;;;4.00;;
21601;SDS011;10963;50.934;4.668;2022-07-22T07:30:06;8.83;;;4.47;;
21601;SDS011;10963;50.934;4.668;2022-07-22T07:32:34;6.57;;;3.70;;
21601;SDS011;10963;50.934;4.668;2022-07-22T07:35:00;6.40;;;3.90;;
21601;SDS011;10963;50.934;4.668;2022-07-22T07:37:26;8.33;;;3.90;;
21601;SDS011;10963;50.934;4.668;2022-07-22T07:39:52;6.60;;;3.70;;
21601;SDS011;10963;50.934;4.668;2022-07-22T07:42:17;6.50;;;3.37;;
21601;SDS011;10963;50.934;4.668;2022-07-22T07:44:43;9.07;;;3.37;;
21601;SDS011;10963;50.934;4.668;2022-07-22T07:47:09;5.60;;;3.20;;
21601;SDS011;10963;50.934;4.668;2022-07-22T07:49:35;4.57;;;3.30;;
21601;SDS011;10963;50.934;4.668;2022-07-22T07:52:03;6.07;;;3.73;;
21601;SDS011;10963;50.934;4.668;2022-07-22T07:54:29;9.23;;;4.23;;
21601;SDS011;10963;50.934;4.668;2022-07-22T07:56:55;6.53;;;3.80;;
21601;SDS011;10963;50.934;4.668;2022-07-22T07:59:20;4.40;;;3.17;;
21601;SDS011;10963;50.934;4.668;2022-07-22T08:01:47;6.57;;;3.60;;
21601;SDS011;10963;50.934;4.668;2022-07-22T08:04:13;6.20;;;3.70;;
21601;SDS011;10963;50.934;4.668;2022-07-22T08:06:39;5.77;;;3.43;;
21601;SDS011;10963;50.934;4.668;2022-07-22T08:09:07;9.03;;;3.50;;
21601;SDS011;10963;50.934;4.668;2022-07-22T08:11:32;6.47;;;3.60;;
21601;SDS011;10963;50.934;4.668;2022-07-22T08:13:58;6.23;;;3.80;;
21601;SDS011;10963;50.934;4.668;2022-07-22T08:16:24;7.03;;;3.53;;
21601;SDS011;10963;50.934;4.668;2022-07-22T08:18:54;8.27;;;4.27;;
21601;SDS011;10963;50.934;4.668;2022-07-22T08:21:20;8.87;;;3.60;;
21601;SDS011;10963;50.934;4.668;2022-07-22T08:23:46;8.80;;;3.67;;
21601;SDS011;10963;50.934;4.668;2022-07-22T08:26:13;5.00;;;4.07;;
21601;SDS011;10963;50.934;4.668;2022-07-22T08:28:39;6.23;;;4.20;;
21601;SDS011;10963;50.934;4.668;2022-07-22T08:31:07;8.67;;;3.63;;
21601;SDS011;10963;50.934;4.668;2022-07-22T08:33:33;6.40;;;3.93;;
21601;SDS011;10963;50.934;4.668;2022-07-22T08:36:02;6.10;;;3.40;;
21601;SDS011;10963;50.934;4.668;2022-07-22T08:38:28;6.13;;;3.70;;
21601;SDS011;10963;50.934;4.668;2022-07-22T08:40:55;8.23;;;4.10;;
21601;SDS011;10963;50.934;4.668;2022-07-22T08:43:21;6.53;;;3.87;;
21601;SDS011;10963;50.934;4.668;2022-07-22T08:45:48;9.17;;;3.90;;
21601;SDS011;10963;50.934;4.668;2022-07-22T08:48:18;11.20;;;4.83;;
21601;SDS011;10963;50.934;4.668;2022-07-22T08:50:44;12.30;;;4.93;;
21601;SDS011;10963;50.934;4.668;2022-07-22T08:53:13;11.03;;;4.37;;
21601;SDS011;10963;50.934;4.668;2022-07-22T08:55:40;6.37;;;4.40;;
21601;SDS011;10963;50.934;4.668;2022-07-22T08:58:10;6.87;;;4.40;;
21601;SDS011;10963;50.934;4.668;2022-07-22T09:00:36;9.07;;;4.40;;
21601;SDS011;10963;50.934;4.668;2022-07-22T09:03:24;11.27;;;4.90;;
21601;SDS011;10963;50.934;4.668;2022-07-22T09:05:54;8.07;;;4.10;;
21601;SDS011;10963;50.934;4.668;2022-07-22T09:08:20;5.80;;;4.27;;
21601;SDS011;10963;50.934;4.668;2022-07-22T09:10:47;9.27;;;4.93;;
21601;SDS011;10963;50.934;4.668;2022-07-22T09:13:16;9.23;;;4.40;;
21601;SDS011;10963;50.934;4.668;2022-07-22T09:15:51;5.27;;;4.10;;
21601;SDS011;10963;50.934;4.668;2022-07-22T09:18:18;6.53;;;4.57;;
21601;SDS011;10963;50.934;4.668;2022-07-22T09:20:44;7.40;;;4.57;;
21601;SDS011;10963;50.934;4.668;2022-07-22T09:23:10;7.83;;;5.03;;
21601;SDS011;10963;50.934;4.668;2022-07-22T09:25:38;7.53;;;4.20;;
21601;SDS011;10963;50.934;4.668;2022-07-22T09:28:10;8.30;;;3.93;;
21601;SDS011;10963;50.934;4.668;2022-07-22T09:30:45;6.03;;;3.83;;
21601;SDS011;10963;50.934;4.668;2022-07-22T09:33:13;8.77;;;4.22;;
21601;SDS011;10963;50.934;4.668;2022-07-22T09:35:40;5.75;;;3.13;;
21601;SDS011;10963;50.934;4.668;2022-07-22T09:38:07;6.78;;;3.92;;
21601;SDS011;10963;50.934;4.668;2022-07-22T09:40:38;9.85;;;4.65;;
21601;SDS011;10963;50.934;4.668;2022-07-22T09:43:06;6.05;;;3.72;;
21601;SDS011;10963;50.934;4.668;2022-07-22T09:45:37;8.70;;;4.43;;
21601;SDS011;10963;50.934;4.668;2022-07-22T09:48:19;9.02;;;4.80;;
21601;SDS011;10963;50.934;4.668;2022-07-22T09:50:46;7.43;;;4.47;;
21601;SDS011;10963;50.934;4.668;2022-07-22T09:53:13;5.28;;;4.18;;
21601;SDS011;10963;50.934;4.668;2022-07-22T09:55:41;9.35;;;4.30;;
21601;SDS011;10963;50.934;4.668;2022-07-22T09:58:10;8.50;;;4.20;;
21601;SDS011;10963;50.934;4.668;2022-07-22T10:00:36;8.45;;;4.28;;
21601;SDS011;10963;50.934;4.668;2022-07-22T10:03:04;7.15;;;4.10;;
21601;SDS011;10963;50.934;4.668;2022-07-22T10:05:39;9.23;;;4.60;;
21601;SDS011;10963;50.934;4.668;2022-07-22T10:08:09;6.03;;;4.03;;
21601;SDS011;10963;50.934;4.668;2022-07-22T10:10:35;8.27;;;4.80;;
21601;SDS011;10963;50.934;4.668;2022-07-22T10:13:05;6.70;;;3.95;;
21601;SDS011;10963;50.934;4.668;2022-07-22T10:15:35;8.07;;;4.68;;
21601;SDS011;10963;50.934;4.668;2022-07-22T10:18:03;6.00;;;4.67;;
21601;SDS011;10963;50.934;4.668;2022-07-22T10:20:38;9.48;;;4.47;;
21601;SDS011;10963;50.934;4.668;2022-07-22T10:23:05;8.63;;;4.53;;
21601;SDS011;10963;50.934;4.668;2022-07-22T10:25:53;7.13;;;4.57;;
21601;SDS011;10963;50.934;4.668;2022-07-22T10:28:22;8.40;;;4.45;;
21601;SDS011;10963;50.934;4.668;2022-07-22T10:31:30;5.95;;;4.65;;
21601;SDS011;10963;50.934;4.668;2022-07-22T10:33:50;8.32;;;4.55;;
21601;SDS011;10963;50.934;4.668;2022-07-22T10:36:32;7.57;;;4.50;;
21601;SDS011;10963;50.934;4.668;2022-07-22T10:39:06;9.85;;;4.95;;
21601;SDS011;10963;50.934;4.668;2022-07-22T10:41:34;8.60;;;4.70;;
21601;SDS011;10963;50.934;4.668;2022-07-22T10:44:05;7.47;;;4.65;;
21601;SDS011;10963;50.934;4.668;2022-07-22T10:46:54;8.18;;;5.05;;
21601;SDS011;10963;50.934;4.668;2022-07-22T10:49:26;10.50;;;4.57;;
21601;SDS011;10963;50.934;4.668;2022-07-22T10:57:51;7.78;;;4.10;;
21601;SDS011;10963;50.934;4.668;2022-07-22T11:00:19;6.70;;;4.47;;
21601;SDS011;10963;50.934;4.668;2022-07-22T11:02:48;5.82;;;4.38;;
21601;SDS011;10963;50.934;4.668;2022-07-22T11:05:14;5.80;;;4.47;;
21601;SDS011;10963;50.934;4.668;2022-07-22T11:07:49;9.75;;;4.68;;
21601;SDS011;10963;50.934;4.668;2022-07-22T11:10:15;7.97;;;4.40;;
21601;SDS011;10963;50.934;4.668;2022-07-22T11:12:43;6.35;;;4.03;;
21601;SDS011;10963;50.934;4.668;2022-07-22T11:15:10;10.02;;;4.60;;
21601;SDS011;10963;50.934;4.668;2022-07-22T11:17:38;8.45;;;4.22;;
21601;SDS011;10963;50.934;4.668;2022-07-22T11:20:08;9.05;;;4.20;;
21601;SDS011;10963;50.934;4.668;2022-07-22T11:22:36;5.97;;;4.10;;
21601;SDS011;10963;50.934;4.668;2022-07-22T11:25:04;8.18;;;4.60;;
21601;SDS011;10963;50.934;4.668;2022-07-22T11:27:32;7.90;;;4.07;;
21601;SDS011;10963;50.934;4.668;2022-07-22T11:30:00;7.28;;;3.92;;
21601;SDS011;10963;50.934;4.668;2022-07-22T11:32:29;6.70;;;4.32;;
21601;SDS011;10963;50.934;4.668;2022-07-22T11:34:59;9.52;;;3.97;;
21601;SDS011;10963;50.934;4.668;2022-07-22T11:37:26;7.82;;;4.82;;
21601;SDS011;10963;50.934;4.668;2022-07-22T11:39:59;8.05;;;4.63;;
21601;SDS011;10963;50.934;4.668;2022-07-22T11:42:29;8.70;;;4.97;;
21601;SDS011;10963;50.934;4.668;2022-07-22T11:44:59;5.95;;;3.83;;
21601;SDS011;10963;50.934;4.668;2022-07-22T11:47:29;8.48;;;4.20;;
21601;SDS011;10963;50.934;4.668;2022-07-22T11:49:54;10.48;;;4.65;;
21601;SDS011;10963;50.934;4.668;2022-07-22T11:52:20;7.78;;;4.30;;
21601;SDS011;10963;50.934;4.668;2022-07-22T11:54:46;6.85;;;4.75;;
21601;SDS011;10963;50.934;4.668;2022-07-22T11:57:12;6.78;;;4.50;;
21601;SDS011;10963;50.934;4.668;2022-07-22T11:59:39;6.32;;;4.68;;
21601;SDS011;10963;50.934;4.668;2022-07-22T12:02:10;8.07;;;4.75;;
21601;SDS011;10963;50.934;4.668;2022-07-22T12:04:41;8.65;;;4.43;;
21601;SDS011;10963;50.934;4.668;2022-07-22T12:07:12;6.78;;;4.40;;
21601;SDS011;10963;50.934;4.668;2022-07-22T12:09:37;8.32;;;4.30;;
21601;SDS011;10963;50.934;4.668;2022-07-22T12:12:06;7.00;;;4.07;;
21601;SDS011;10963;50.934;4.668;2022-07-22T12:14:32;9.52;;;4.43;;
21601;SDS011;10963;50.934;4.668;2022-07-22T12:17:00;8.45;;;4.47;;
21601;SDS011;10963;50.934;4.668;2022-07-22T12:19:29;7.83;;;4.00;;
21601;SDS011;10963;50.934;4.668;2022-07-22T12:22:00;9.40;;;4.57;;
21601;SDS011;10963;50.934;4.668;2022-07-22T12:27:25;7.90;;;3.80;;
21601;SDS011;10963;50.934;4.668;2022-07-22T12:29:50;7.88;;;4.47;;
21601;SDS011;10963;50.934;4.668;2022-07-22T12:32:17;7.60;;;4.60;;
21601;SDS011;10963;50.934;4.668;2022-07-22T12:34:57;6.60;;;3.80;;
21601;SDS011;10963;50.934;4.668;2022-07-22T12:37:27;8.10;;;4.83;;
21601;SDS011;10963;50.934;4.668;2022-07-22T12:39:59;8.67;;;4.70;;
21601;SDS011;10963;50.934;4.668;2022-07-22T12:42:26;7.47;;;4.53;;
21601;SDS011;10963;50.934;4.668;2022-07-22T12:52:56;7.97;;;3.93;;
21601;SDS011;10963;50.934;4.668;2022-07-22T12:55:24;6.53;;;4.30;;
21601;SDS011;10963;50.934;4.668;2022-07-22T12:57:53;8.18;;;4.43;;
21601;SDS011;10963;50.934;4.668;2022-07-22T13:00:23;6.13;;;4.15;;
21601;SDS011;10963;50.934;4.668;2022-07-22T13:02:53;6.90;;;3.90;;
21601;SDS011;10963;50.934;4.668;2022-07-22T13:05:20;6.80;;;4.32;;
21601;SDS011;10963;50.934;4.668;2022-07-22T13:07:47;6.70;;;3.97;;
21601;SDS011;10963;50.934;4.668;2022-07-22T13:10:13;6.20;;;4.25;;
21601;SDS011;10963;50.934;4.668;2022-07-22T13:12:40;7.17;;;4.40;;
21601;SDS011;10963;50.934;4.668;2022-07-22T13:15:06;6.97;;;3.72;;
21601;SDS011;10963;50.934;4.668;2022-07-22T13:17:33;5.32;;;4.18;;
21601;SDS011;10963;50.934;4.668;2022-07-22T13:19:59;6.03;;;3.97;;
21601;SDS011;10963;50.934;4.668;2022-07-22T13:22:24;6.25;;;3.97;;
21601;SDS011;10963;50.934;4.668;2022-07-22T13:24:50;10.80;;;4.85;;
21601;SDS011;10963;50.934;4.668;2022-07-22T13:27:16;9.18;;;4.15;;
21601;SDS011;10963;50.934;4.668;2022-07-22T13:29:42;6.90;;;4.57;;
21601;SDS011;10963;50.934;4.668;2022-07-22T13:32:08;7.47;;;4.93;;
21601;SDS011;10963;50.934;4.668;2022-07-22T13:34:34;8.80;;;5.07;;
21601;SDS011;10963;50.934;4.668;2022-07-22T13:37:00;8.15;;;4.15;;
21601;SDS011;10963;50.934;4.668;2022-07-22T13:39:28;6.82;;;4.38;;
21601;SDS011;10963;50.934;4.668;2022-07-22T13:41:56;9.82;;;5.00;;
21601;SDS011;10963;50.934;4.668;2022-07-22T13:44:22;8.53;;;4.67;;
21601;SDS011;10963;50.934;4.668;2022-07-22T13:46:48;7.15;;;4.45;;
21601;SDS011;10963;50.934;4.668;2022-07-22T13:49:16;8.45;;;4.72;;
21601;SDS011;10963;50.934;4.668;2022-07-22T13:51:42;8.20;;;4.22;;
21601;SDS011;10963;50.934;4.668;2022-07-22T13:54:08;7.70;;;5.18;;
21601;SDS011;10963;50.934;4.668;2022-07-22T13:56:36;6.57;;;5.00;;
21601;SDS011;10963;50.934;4.668;2022-07-22T13:59:04;15.68;;;4.63;;
21601;SDS011;10963;50.934;4.668;2022-07-22T14:01:30;6.13;;;4.37;;
21601;SDS011;10963;50.934;4.668;2022-07-22T14:03:58;8.00;;;5.30;;
21601;SDS011;10963;50.934;4.668;2022-07-22T14:06:25;7.80;;;4.60;;
21601;SDS011;10963;50.934;4.668;2022-07-22T14:08:51;8.60;;;4.72;;
21601;SDS011;10963;50.934;4.668;2022-07-22T14:11:19;10.03;;;5.07;;
21601;SDS011;10963;50.934;4.668;2022-07-22T14:13:47;8.80;;;5.17;;
21601;SDS011;10963;50.934;4.668;2022-07-22T14:16:13;9.77;;;5.40;;
21601;SDS011;10963;50.934;4.668;2022-07-22T14:18:57;6.63;;;4.85;;
21601;SDS011;10963;50.934;4.668;2022-07-22T14:21:23;8.80;;;5.00;;
21601;SDS011;10963;50.934;4.668;2022-07-22T14:23:49;10.65;;;5.45;;
21601;SDS011;10963;50.934;4.668;2022-07-22T14:26:14;7.50;;;4.93;;
21601;SDS011;10963;50.934;4.668;2022-07-22T14:28:40;6.90;;;5.20;;
21601;SDS011;10963;50.934;4.668;2022-07-22T14:31:05;8.13;;;5.82;;
21601;SDS011;10963;50.934;4.668;2022-07-22T14:33:31;8.77;;;6.20;;
21601;SDS011;10963;50.934;4.668;2022-07-22T14:36:02;16.73;;;5.80;;
21601;SDS011;10963;50.934;4.668;2022-07-22T14:38:28;8.63;;;5.80;;
21601;SDS011;10963;50.934;4.668;2022-07-22T14:40:54;9.93;;;5.77;;
21601;SDS011;10963;50.934;4.668;2022-07-22T14:43:22;11.32;;;5.68;;
21601;SDS011;10963;50.934;4.668;2022-07-22T14:45:47;11.55;;;5.57;;
21601;SDS011;10963;50.934;4.668;2022-07-22T14:48:18;9.47;;;5.57;;
21601;SDS011;10963;50.934;4.668;2022-07-22T14:50:43;10.03;;;5.30;;
21601;SDS011;10963;50.934;4.668;2022-07-22T14:53:10;12.02;;;5.60;;
21601;SDS011;10963;50.934;4.668;2022-07-22T14:55:38;7.35;;;5.22;;
21601;SDS011;10963;50.934;4.668;2022-07-22T14:58:04;10.50;;;5.73;;
21601;SDS011;10963;50.934;4.668;2022-07-22T15:00:33;12.53;;;6.40;;
21601;SDS011;10963;50.934;4.668;2022-07-22T15:03:01;9.83;;;5.83;;
21601;SDS011;10963;50.934;4.668;2022-07-22T15:05:27;10.80;;;6.07;;